Time;durP1;ratioP1;P1;durP2;ratioP2;P2;SDS_P1;SDS_P2;PMS_P1;PMS_P2;Temp;Humidity;BMP_temperature;BMP_pressure;BME280_temperature;BME280_humidity;BME280_pressure;Samples;Min_cycle;Max_cycle;Signal;HPM_P1;HPM_P2
2023/12/03 00:00:41;;;;;;;23.00;16.20;;;-0.30;90.30;;;;;;6248810;28;20053;-82
2023/12/03 00:03:43;;;;;;;20.77;15.27;;;-0.30;90.10;;;;;;6260775;28;20529;-82
2023/12/03 00:06:45;;;;;;;22.57;16.40;;;-0.30;90.10;;;;;;6253665;28;20049;-82
2023/12/03 00:09:47;;;;;;;24.13;16.20;;;-0.30;90.20;;;;;;6255096;28;20049;-82
2023/12/03 00:12:50;;;;;;;23.90;15.03;;;-0.30;90.20;;;;;;6262793;28;20076;-82
2023/12/03 00:15:52;;;;;;;24.47;17.80;;;-0.30;90.20;;;;;;6251420;28;20059;-82
2023/12/03 00:18:53;;;;;;;25.97;18.37;;;-0.30;90.10;;;;;;6264933;28;20072;-80
2023/12/03 00:21:55;;;;;;;25.10;16.93;;;-0.30;90.10;;;;;;6260674;28;20041;-80
2023/12/03 00:24:57;;;;;;;24.77;15.63;;;-0.30;90.00;;;;;;6254010;28;20100;-81
2023/12/03 00:28:00;;;;;;;25.80;18.30;;;-0.30;90.00;;;;;;6254473;28;20046;-81
2023/12/03 00:31:01;;;;;;;30.43;19.30;;;-0.30;90.00;;;;;;6260838;28;20049;-82
2023/12/03 00:34:04;;;;;;;25.03;16.83;;;-0.30;90.00;;;;;;6265270;28;20052;-82
2023/12/03 00:37:06;;;;;;;30.40;17.93;;;-0.30;89.90;;;;;;6255747;28;20060;-81
2023/12/03 00:40:08;;;;;;;29.30;19.40;;;-0.30;89.80;;;;;;6259661;28;20098;-81
2023/12/03 00:43:11;;;;;;;28.63;18.33;;;-0.30;89.80;;;;;;6264964;28;20545;-81
2023/12/03 00:46:13;;;;;;;27.40;16.87;;;-0.30;89.90;;;;;;6271966;28;20659;-81
2023/12/03 00:49:15;;;;;;;29.70;19.03;;;-0.30;89.80;;;;;;6266672;28;20418;-81
2023/12/03 00:52:16;;;;;;;25.90;16.30;;;-0.30;89.00;;;;;;6263611;28;20394;-81
2023/12/03 00:55:18;;;;;;;27.53;17.13;;;-0.30;88.50;;;;;;6264313;28;20418;-81
2023/12/03 00:58:21;;;;;;;25.37;16.27;;;-0.40;87.90;;;;;;6260939;28;20059;-81
2023/12/03 01:01:23;;;;;;;28.93;17.87;;;-0.40;88.00;;;;;;6264679;28;20049;-82
2023/12/03 01:04:24;;;;;;;32.47;18.20;;;-0.40;88.20;;;;;;6273025;28;20041;-81
2023/12/03 01:07:26;;;;;;;29.97;17.57;;;-0.40;87.90;;;;;;6262239;22;20060;-77
2023/12/03 01:10:28;;;;;;;28.93;18.47;;;-0.40;88.20;;;;;;6211762;28;20061;-77
2023/12/03 01:13:31;;;;;;;29.10;18.17;;;-0.40;87.90;;;;;;6211581;28;20126;-77
2023/12/03 01:16:33;;;;;;;28.07;17.17;;;-0.40;87.70;;;;;;6233180;28;20061;-77
2023/12/03 01:19:35;;;;;;;52.03;30.63;;;-0.40;87.90;;;;;;6209767;28;20056;-77
2023/12/03 01:22:36;;;;;;;27.47;17.27;;;-0.40;87.90;;;;;;6209514;28;20046;-78
2023/12/03 01:25:38;;;;;;;23.90;15.73;;;-0.50;87.70;;;;;;6194322;28;20042;-77
2023/12/03 01:28:41;;;;;;;38.40;20.73;;;-0.50;87.80;;;;;;6220234;28;20057;-78
2023/12/03 01:31:42;;;;;;;27.90;17.53;;;-0.50;87.70;;;;;;6210757;28;20046;-78
2023/12/03 01:34:44;;;;;;;30.57;19.70;;;-0.60;88.00;;;;;;6216907;28;20054;-76
2023/12/03 01:37:46;;;;;;;28.27;18.57;;;-0.60;88.00;;;;;;6203679;28;20046;-78
2023/12/03 01:40:52;;;;;;;67.97;46.50;;;-0.60;87.90;;;;;;6213136;28;20057;-78
2023/12/03 01:43:55;;;;;;;35.63;22.20;;;-0.60;87.60;;;;;;6216252;28;20056;-78
2023/12/03 01:46:59;;;;;;;80.43;50.93;;;-0.60;87.80;;;;;;6218791;28;20422;-77
2023/12/03 01:50:06;;;;;;;141.33;89.20;;;-0.60;87.80;;;;;;6207850;28;20054;-78
2023/12/03 01:53:09;;;;;;;45.43;26.27;;;-0.60;87.90;;;;;;6218131;28;20050;-78
2023/12/03 01:56:12;;;;;;;41.30;24.47;;;-0.60;88.00;;;;;;6217464;28;20053;-76
2023/12/03 01:59:16;;;;;;;37.93;23.17;;;-0.60;87.80;;;;;;6213608;28;20105;-78
2023/12/03 02:02:17;;;;;;;32.53;19.17;;;-0.70;87.80;;;;;;6221998;28;20057;-77
2023/12/03 02:05:19;;;;;;;28.80;18.47;;;-0.70;87.90;;;;;;6227874;28;20060;-77
2023/12/03 02:08:21;;;;;;;26.57;18.97;;;-0.80;88.10;;;;;;6212710;28;20054;-78
2023/12/03 02:11:22;;;;;;;32.50;19.87;;;-0.90;88.10;;;;;;6209579;28;20058;-78
2023/12/03 02:14:25;;;;;;;33.97;22.00;;;-0.90;88.40;;;;;;6209484;28;20048;-78
2023/12/03 02:17:27;;;;;;;29.53;18.33;;;-1.00;88.40;;;;;;6201920;28;20053;-78
2023/12/03 02:20:29;;;;;;;31.97;20.10;;;-1.10;88.50;;;;;;6215354;28;20514;-77
2023/12/03 02:23:32;;;;;;;32.27;20.23;;;-1.20;88.50;;;;;;6211075;28;20058;-78
2023/12/03 02:26:34;;;;;;;33.20;19.80;;;-1.20;88.60;;;;;;6210528;28;20061;-78
2023/12/03 02:29:36;;;;;;;32.40;20.50;;;-1.20;88.60;;;;;;6217399;28;20053;-78
2023/12/03 02:32:37;;;;;;;32.53;21.23;;;-1.30;88.70;;;;;;6231871;28;20046;-76
2023/12/03 02:35:39;;;;;;;37.80;22.90;;;-1.30;88.60;;;;;;6218016;28;20050;-77
2023/12/03 02:38:42;;;;;;;30.43;19.33;;;-1.20;88.80;;;;;;6201208;28;20053;-78
2023/12/03 02:41:44;;;;;;;31.93;19.03;;;-1.20;88.70;;;;;;6199182;28;20050;-77
2023/12/03 02:44:45;;;;;;;37.73;22.37;;;-1.10;88.70;;;;;;6218233;28;20050;-77
2023/12/03 02:47:47;;;;;;;32.77;20.87;;;-1.20;88.40;;;;;;6215747;28;20050;-77
2023/12/03 02:50:49;;;;;;;35.30;20.90;;;-1.20;88.20;;;;;;6208469;28;20403;-77
2023/12/03 02:53:52;;;;;;;33.67;20.17;;;-1.30;87.80;;;;;;6208848;28;20506;-77
2023/12/03 02:56:54;;;;;;;37.07;22.03;;;-1.40;88.00;;;;;;6209043;28;20491;-78
2023/12/03 02:59:55;;;;;;;36.83;21.47;;;-1.60;88.10;;;;;;6209090;28;20050;-78
2023/12/03 03:02:57;;;;;;;30.27;18.57;;;-1.70;88.40;;;;;;6201075;28;20128;-77
2023/12/03 03:05:59;;;;;;;35.13;22.80;;;-1.80;88.70;;;;;;6208577;28;20434;-76
2023/12/03 03:09:03;;;;;;;37.07;20.73;;;-1.90;88.90;;;;;;6201754;28;20229;-77
2023/12/03 03:12:05;;;;;;;35.17;22.17;;;-2.00;89.20;;;;;;6200459;28;20158;-78
2023/12/03 03:15:08;;;;;;;33.73;21.23;;;-2.00;89.30;;;;;;6209164;28;20042;-78
2023/12/03 03:18:09;;;;;;;34.27;21.40;;;-2.10;89.50;;;;;;6211633;28;20056;-78
2023/12/03 03:21:11;;;;;;;42.07;22.07;;;-2.20;89.60;;;;;;6214655;28;20059;-77
2023/12/03 03:24:14;;;;;;;35.30;19.43;;;-2.30;89.70;;;;;;6200159;28;20049;-77
2023/12/03 03:27:16;;;;;;;32.63;20.63;;;-2.30;89.90;;;;;;6216820;28;20049;-78
2023/12/03 03:30:18;;;;;;;44.20;23.20;;;-2.40;89.90;;;;;;6208672;28;20046;-77
2023/12/03 03:33:19;;;;;;;41.47;23.77;;;-2.40;90.10;;;;;;6210086;28;20462;-78
2023/12/03 03:36:21;;;;;;;35.43;20.60;;;-2.50;90.10;;;;;;6205048;28;20057;-78
2023/12/03 03:39:24;;;;;;;40.40;23.03;;;-2.60;90.10;;;;;;6212521;28;20042;-78
2023/12/03 03:42:26;;;;;;;40.40;21.30;;;-2.70;90.10;;;;;;6202540;28;20050;-77
2023/12/03 03:45:27;;;;;;;36.83;21.17;;;-2.70;90.20;;;;;;6200761;28;20066;-78
2023/12/03 03:48:29;;;;;;;37.03;21.70;;;-2.80;90.20;;;;;;6208217;28;20050;-78
2023/12/03 03:51:31;;;;;;;39.77;23.90;;;-2.80;90.30;;;;;;6207951;28;20042;-78
2023/12/03 03:54:34;;;;;;;34.10;20.17;;;-2.90;90.30;;;;;;6200073;28;20050;-78
2023/12/03 03:57:35;;;;;;;38.47;21.57;;;-3.00;90.30;;;;;;6199593;28;20042;-78
2023/12/03 04:00:37;;;;;;;37.57;20.57;;;-3.00;90.40;;;;;;6200388;28;20046;-78
2023/12/03 04:03:39;;;;;;;43.27;25.03;;;-3.10;90.40;;;;;;6208071;28;20050;-79
2023/12/03 04:06:41;;;;;;;33.37;21.77;;;-3.10;90.40;;;;;;6200129;28;20043;-77
2023/12/03 04:09:46;;;;;;;32.07;19.83;;;-3.20;90.50;;;;;;6208177;28;20057;-78
2023/12/03 04:12:48;;;;;;;35.50;21.23;;;-3.30;90.40;;;;;;6208492;28;20066;-78
2023/12/03 04:15:49;;;;;;;37.00;19.80;;;-3.30;90.50;;;;;;6224208;28;20052;-78
2023/12/03 04:18:51;;;;;;;36.20;21.20;;;-3.40;90.50;;;;;;6205566;28;20038;-78
2023/12/03 04:21:53;;;;;;;36.13;21.27;;;-3.40;90.60;;;;;;6212060;28;20046;-77
2023/12/03 04:24:56;;;;;;;33.77;20.07;;;-3.50;90.60;;;;;;6206191;28;20046;-77
2023/12/03 04:27:58;;;;;;;39.43;21.73;;;-3.50;90.60;;;;;;6211597;28;20165;-78
2023/12/03 04:30:59;;;;;;;38.70;21.83;;;-3.60;90.70;;;;;;6205264;28;20057;-78
2023/12/03 04:34:01;;;;;;;39.87;22.57;;;-3.60;90.70;;;;;;6205036;28;20065;-78
2023/12/03 04:37:03;;;;;;;35.43;20.90;;;-3.70;90.70;;;;;;6214402;28;20054;-77
2023/12/03 04:40:09;;;;;;;32.90;20.03;;;-3.70;90.70;;;;;;6204828;28;20077;-78
2023/12/03 04:43:10;;;;;;;31.83;19.20;;;-3.70;90.80;;;;;;6213461;28;20392;-78
2023/12/03 04:46:12;;;;;;;46.43;22.90;;;-3.80;90.80;;;;;;6223181;28;20061;-79
2023/12/03 04:49:14;;;;;;;38.47;21.27;;;-3.80;90.80;;;;;;6216457;28;20046;-79
2023/12/03 04:52:16;;;;;;;36.67;20.67;;;-3.90;90.80;;;;;;6209877;28;20042;-78
2023/12/03 04:55:19;;;;;;;38.80;20.50;;;-3.90;90.90;;;;;;6217811;28;20050;-79
2023/12/03 04:58:21;;;;;;;40.00;21.87;;;-3.90;90.90;;;;;;6210068;28;20049;-78
2023/12/03 05:01:23;;;;;;;36.53;20.00;;;-3.90;91.00;;;;;;6203046;28;20061;-78
2023/12/03 05:04:26;;;;;;;40.80;20.90;;;-3.90;91.00;;;;;;6210769;28;20043;-78
2023/12/03 05:07:28;;;;;;;40.90;20.80;;;-4.00;91.00;;;;;;6201804;28;20054;-78
2023/12/03 05:10:31;;;;;;;36.63;19.13;;;-3.90;91.10;;;;;;6201346;28;20075;-78
2023/12/03 05:13:33;;;;;;;35.23;17.43;;;-3.90;91.20;;;;;;6201120;28;20054;-78
2023/12/03 05:16:34;;;;;;;33.73;21.73;;;-3.90;91.20;;;;;;6201429;28;20057;-78
2023/12/03 05:19:36;;;;;;;35.10;22.67;;;-3.80;91.20;;;;;;6208018;28;20049;-79
2023/12/03 05:22:38;;;;;;;36.53;22.53;;;-3.80;91.20;;;;;;6208167;28;20071;-79
2023/12/03 05:25:41;;;;;;;33.57;21.43;;;-3.80;91.20;;;;;;6202301;28;20400;-78
2023/12/03 05:28:43;;;;;;;39.03;19.37;;;-3.80;91.20;;;;;;6200135;28;20177;-78
2023/12/03 05:31:45;;;;;;;33.60;18.53;;;-3.80;91.30;;;;;;6198029;28;20069;-78
2023/12/03 05:34:47;;;;;;;38.13;19.83;;;-3.80;91.40;;;;;;6201090;28;20043;-79
2023/12/03 05:37:49;;;;;;;34.20;18.73;;;-3.80;91.30;;;;;;6202115;28;20049;-78
2023/12/03 05:40:52;;;;;;;36.13;18.80;;;-3.80;91.60;;;;;;6194142;28;20053;-79
2023/12/03 05:43:54;;;;;;;32.77;19.83;;;-3.80;91.30;;;;;;6193657;28;20034;-78
2023/12/03 05:46:56;;;;;;;34.20;20.13;;;-3.80;91.40;;;;;;6201589;28;20057;-78
2023/12/03 05:49:58;;;;;;;35.80;20.53;;;-3.90;91.40;;;;;;6201201;28;20050;-79
2023/12/03 05:53:00;;;;;;;38.40;20.00;;;-3.90;91.40;;;;;;6202138;28;20050;-78
2023/12/03 05:56:03;;;;;;;37.47;21.83;;;-3.80;91.50;;;;;;6201654;28;20056;-79
2023/12/03 05:59:05;;;;;;;34.27;19.60;;;-3.90;91.50;;;;;;6201644;28;20061;-78
2023/12/03 06:02:07;;;;;;;26.73;17.23;;;-3.80;91.60;;;;;;6204469;28;20047;-79
2023/12/03 06:05:09;;;;;;;35.70;20.50;;;-3.90;91.50;;;;;;6215998;28;20050;-78
2023/12/03 06:08:10;;;;;;;33.97;18.77;;;-3.80;91.60;;;;;;6212524;28;20050;-78
2023/12/03 06:11:13;;;;;;;32.03;19.87;;;-3.90;91.60;;;;;;6202318;28;20042;-79
2023/12/03 06:14:15;;;;;;;38.73;22.57;;;-3.90;91.50;;;;;;6212239;28;20046;-78
2023/12/03 06:17:17;;;;;;;35.70;21.60;;;-3.90;91.60;;;;;;6214060;28;20046;-78
2023/12/03 06:20:19;;;;;;;29.47;17.33;;;-3.80;91.70;;;;;;6200222;28;20644;-78
2023/12/03 06:23:20;;;;;;;33.63;18.33;;;-3.80;91.70;;;;;;6200398;28;20490;-78
2023/12/03 06:26:24;;;;;;;35.20;19.33;;;-3.90;91.60;;;;;;6208412;28;20058;-79
2023/12/03 06:29:25;;;;;;;37.70;21.17;;;-3.90;91.70;;;;;;6200703;28;20050;-80
2023/12/03 06:32:27;;;;;;;36.13;21.07;;;-3.90;91.70;;;;;;6216005;28;20052;-78
2023/12/03 06:35:29;;;;;;;39.87;21.43;;;-3.80;91.80;;;;;;6205805;28;20062;-78
2023/12/03 06:38:30;;;;;;;39.07;21.27;;;-3.80;91.80;;;;;;6209841;28;20053;-77
2023/12/03 06:41:34;;;;;;;32.87;18.27;;;-3.80;91.70;;;;;;6205932;28;20053;-78
2023/12/03 06:44:35;;;;;;;33.27;18.23;;;-3.80;91.70;;;;;;6206279;28;20622;-77
2023/12/03 06:47:37;;;;;;;32.27;18.13;;;-3.80;91.80;;;;;;6207983;28;20053;-78
2023/12/03 06:50:39;;;;;;;34.40;18.70;;;-3.80;91.70;;;;;;6206241;28;20063;-77
2023/12/03 06:53:40;;;;;;;35.47;20.00;;;-3.80;91.70;;;;;;6205678;28;20047;-79
2023/12/03 06:56:43;;;;;;;33.20;20.50;;;-3.80;91.80;;;;;;6205699;28;20057;-79
2023/12/03 06:59:45;;;;;;;32.07;19.57;;;-3.80;91.80;;;;;;6196473;28;20061;-78
2023/12/03 07:02:47;;;;;;;29.83;19.47;;;-3.70;92.00;;;;;;6196755;28;20049;-78
2023/12/03 07:05:48;;;;;;;33.17;20.63;;;-3.60;91.90;;;;;;6195948;28;20062;-78
2023/12/03 07:08:50;;;;;;;33.80;19.73;;;-3.60;91.90;;;;;;6197068;28;20416;-77
2023/12/03 07:11:53;;;;;;;36.37;19.97;;;-3.60;91.90;;;;;;6196284;28;20097;-77
2023/12/03 07:14:55;;;;;;;40.10;21.30;;;-3.60;91.90;;;;;;6196406;28;20046;-78
2023/12/03 07:17:57;;;;;;;33.83;17.57;;;-3.60;91.90;;;;;;6196495;28;20050;-79
2023/12/03 07:20:58;;;;;;;26.90;17.30;;;-3.60;91.90;;;;;;6196917;28;20057;-78
2023/12/03 07:24:00;;;;;;;37.03;18.57;;;-3.60;91.90;;;;;;6195971;28;20396;-78
2023/12/03 07:27:04;;;;;;;47.53;18.63;;;-3.60;91.90;;;;;;6196060;28;20046;-78
2023/12/03 07:30:07;;;;;;;35.17;19.43;;;-3.50;92.00;;;;;;6155777;28;20061;-79
2023/12/03 07:33:08;;;;;;;34.93;19.87;;;-3.50;92.00;;;;;;6197217;28;20138;-79
2023/12/03 07:36:12;;;;;;;37.53;20.97;;;-3.40;92.00;;;;;;6195979;28;20054;-76
2023/12/03 07:39:14;;;;;;;31.30;18.23;;;-3.40;92.00;;;;;;6188931;28;20053;-78
2023/12/03 07:42:17;;;;;;;29.63;18.37;;;-3.30;92.10;;;;;;6177199;28;20049;-78
2023/12/03 07:45:18;;;;;;;35.73;19.10;;;-3.30;92.10;;;;;;6171535;28;20500;-79
2023/12/03 07:48:20;;;;;;;30.83;18.67;;;-3.20;92.10;;;;;;6198782;28;20046;-79
2023/12/03 07:51:22;;;;;;;37.17;19.80;;;-3.10;92.10;;;;;;6203282;28;20038;-78
2023/12/03 07:54:24;;;;;;;31.23;18.87;;;-3.00;92.10;;;;;;6175900;28;20045;-79
2023/12/03 07:57:27;;;;;;;32.80;18.90;;;-2.90;92.10;;;;;;6212303;28;20050;-78
2023/12/03 08:00:29;;;;;;;30.77;19.13;;;-2.80;92.10;;;;;;6206371;28;20585;-78
2023/12/03 08:03:31;;;;;;;38.30;19.93;;;-2.60;92.30;;;;;;6204666;28;20633;-77
2023/12/03 08:06:33;;;;;;;36.13;19.57;;;-2.30;92.30;;;;;;6216470;28;20042;-78
2023/12/03 08:09:34;;;;;;;29.43;19.60;;;-2.10;92.40;;;;;;6216256;28;20050;-77
2023/12/03 08:12:37;;;;;;;36.47;23.90;;;-1.90;92.40;;;;;;6210001;28;20053;-78
2023/12/03 08:15:39;;;;;;;37.80;23.97;;;-1.60;92.40;;;;;;6209065;28;20042;-78
2023/12/03 08:18:41;;;;;;;31.90;21.87;;;-1.40;92.30;;;;;;6206319;28;20037;-78
2023/12/03 08:21:43;;;;;;;38.27;23.07;;;-1.20;92.20;;;;;;6207030;28;20426;-79
2023/12/03 08:24:44;;;;;;;29.10;18.97;;;-0.90;92.20;;;;;;6204470;28;20046;-78
2023/12/03 08:27:47;;;;;;;37.30;20.73;;;-0.70;92.20;;;;;;6200848;28;20042;-78
2023/12/03 08:30:49;;;;;;;33.13;19.67;;;-0.40;92.20;;;;;;6217500;28;20056;-78
2023/12/03 08:33:52;;;;;;;31.03;18.13;;;-0.20;92.10;;;;;;6199317;28;20050;-78
2023/12/03 08:36:53;;;;;;;24.63;14.80;;;0.10;91.80;;;;;;6207362;28;20078;-77
2023/12/03 08:39:55;;;;;;;25.30;15.63;;;0.30;91.70;;;;;;6210063;28;20046;-78
2023/12/03 08:42:58;;;;;;;23.10;16.33;;;0.50;91.60;;;;;;6198197;28;20042;-80
2023/12/03 08:46:00;;;;;;;26.73;16.57;;;0.70;91.50;;;;;;6203726;28;20053;-78
2023/12/03 08:49:01;;;;;;;19.25;12.18;;;1.00;91.40;;;;;;6202408;28;20054;-79
2023/12/03 08:52:03;;;;;;;22.00;13.85;;;1.20;91.60;;;;;;6204331;28;20046;-79
2023/12/03 08:55:06;;;;;;;22.25;13.95;;;1.50;91.30;;;;;;6205567;28;20069;-79
2023/12/03 08:58:09;;;;;;;17.20;13.48;;;1.70;91.00;;;;;;6167675;28;20050;-78
2023/12/03 09:01:11;;;;;;;20.65;14.15;;;1.90;91.00;;;;;;6194741;28;20562;-78
2023/12/03 09:04:13;;;;;;;19.63;14.45;;;2.10;90.70;;;;;;6193119;28;20042;-79
2023/12/03 09:07:15;;;;;;;26.63;14.30;;;2.30;90.60;;;;;;6178896;28;20054;-79
2023/12/03 09:10:17;;;;;;;21.02;14.43;;;2.50;90.40;;;;;;6174786;28;20058;-78
2023/12/03 09:13:20;;;;;;;19.20;13.68;;;2.60;90.00;;;;;;6177777;28;20396;-78
2023/12/03 09:16:22;;;;;;;20.83;14.95;;;2.80;90.00;;;;;;6200615;28;20073;-78
2023/12/03 09:19:24;;;;;;;23.13;15.68;;;3.10;89.90;;;;;;6203512;28;20053;-78
2023/12/03 09:22:25;;;;;;;24.73;13.95;;;3.30;89.20;;;;;;6211836;28;20043;-80
2023/12/03 09:25:27;;;;;;;29.48;18.30;;;3.50;88.30;;;;;;6210392;28;20484;-80
2023/12/03 09:28:32;;;;;;;24.00;14.88;;;3.50;87.80;;;;;;6197486;28;20411;-79
2023/12/03 09:31:34;;;;;;;26.52;16.08;;;3.70;87.50;;;;;;6208452;28;20050;-80
2023/12/03 09:34:36;;;;;;;53.40;29.02;;;3.80;87.00;;;;;;6211042;28;20184;-80
2023/12/03 09:37:37;;;;;;;75.28;41.17;;;4.00;86.80;;;;;;6202701;28;20046;-78
2023/12/03 09:40:39;;;;;;;21.45;15.98;;;4.20;86.40;;;;;;6202888;28;20538;-79
2023/12/03 09:43:47;;;;;;;19.98;14.05;;;4.40;86.30;;;;;;6218728;28;20042;-80
2023/12/03 09:46:51;;;;;;;67.03;34.97;;;4.60;86.00;;;;;;6222512;28;20049;-80
2023/12/03 09:49:55;;;;;;;119.07;55.58;;;4.90;86.60;;;;;;6206091;28;20078;-80
2023/12/03 09:52:57;;;;;;;166.43;77.40;;;5.70;87.70;;;;;;6207027;28;20072;-80
2023/12/03 09:55:59;;;;;;;98.18;53.20;;;6.10;87.70;;;;;;6203873;28;20045;-79
2023/12/03 09:59:02;;;;;;;24.02;15.15;;;6.40;87.80;;;;;;6201978;28;20057;-79
2023/12/03 10:02:05;;;;;;;64.55;36.15;;;6.60;87.00;;;;;;6206277;28;20061;-79
2023/12/03 10:05:10;;;;;;;30.10;20.23;;;6.90;86.50;;;;;;6200957;28;20049;-79
2023/12/03 10:08:12;;;;;;;39.05;22.35;;;6.90;84.70;;;;;;6201520;28;20042;-78
2023/12/03 10:11:21;;;;;;;21.17;14.82;;;6.90;83.60;;;;;;6207267;28;20053;-79
2023/12/03 10:14:24;;;;;;;24.20;18.02;;;7.00;83.20;;;;;;6199040;28;20412;-78
2023/12/03 10:17:27;;;;;;;23.17;16.65;;;7.40;83.00;;;;;;6191823;28;20090;-77
2023/12/03 10:20:32;;;;;;;16.58;13.07;;;7.70;82.10;;;;;;6191842;28;20054;-78
2023/12/03 10:23:34;;;;;;;19.30;13.88;;;7.60;80.10;;;;;;6193603;28;20050;-80
2023/12/03 10:26:36;;;;;;;22.88;17.75;;;8.00;80.00;;;;;;6191582;28;20043;-79
2023/12/03 10:29:39;;;;;;;21.80;14.13;;;8.10;79.20;;;;;;6193091;28;20051;-82
2023/12/03 10:32:41;;;;;;;19.95;13.93;;;7.70;76.30;;;;;;6192987;28;21085;-79
2023/12/03 10:35:43;;;;;;;19.15;14.85;;;7.50;77.10;;;;;;6194118;28;20073;-80
2023/12/03 10:38:45;;;;;;;21.33;15.60;;;7.30;77.20;;;;;;6185113;28;20057;-78
2023/12/03 10:41:47;;;;;;;20.42;14.35;;;7.20;77.30;;;;;;6170181;28;20130;-79
2023/12/03 10:44:50;;;;;;;20.25;14.48;;;7.10;77.20;;;;;;6199726;28;20050;-79
2023/12/03 10:47:57;;;;;;;21.20;16.55;;;6.90;77.20;;;;;;6175889;28;20053;-80
2023/12/03 10:51:04;;;;;;;23.90;14.77;;;6.90;77.50;;;;;;6171190;28;20042;-80
2023/12/03 10:54:06;;;;;;;19.65;14.90;;;6.90;77.70;;;;;;6176867;28;20059;-80
2023/12/03 10:57:09;;;;;;;20.80;14.73;;;6.80;78.30;;;;;;6173367;28;20046;-80
2023/12/03 11:00:17;;;;;;;21.73;15.90;;;6.80;77.80;;;;;;6180581;28;20060;-80
2023/12/03 11:03:24;;;;;;;15.10;12.25;;;6.90;77.30;;;;;;6172455;28;20189;-80
2023/12/03 11:06:26;;;;;;;17.85;14.18;;;6.80;77.40;;;;;;6168445;28;20047;-80
2023/12/03 11:09:28;;;;;;;21.80;14.68;;;6.90;78.10;;;;;;6176676;28;20190;-79
2023/12/03 11:12:30;;;;;;;19.35;13.50;;;7.20;78.20;;;;;;6177059;28;20133;-79
2023/12/03 11:15:34;;;;;;;20.98;14.82;;;7.50;78.00;;;;;;6174720;28;20404;-79
2023/12/03 11:18:41;;;;;;;22.00;13.15;;;7.80;77.50;;;;;;6180881;28;20042;-79
2023/12/03 11:21:51;;;;;;;16.35;13.82;;;7.90;77.00;;;;;;6174691;28;20051;-80
2023/12/03 11:24:59;;;;;;;17.30;13.98;;;8.10;77.20;;;;;;6175694;28;20043;-80
2023/12/03 11:28:01;;;;;;;18.08;13.30;;;8.30;75.50;;;;;;6174726;28;20443;-78
2023/12/03 11:31:04;;;;;;;19.48;13.30;;;8.40;75.80;;;;;;6174861;28;20046;-78
2023/12/03 11:34:06;;;;;;;15.93;11.80;;;8.50;75.20;;;;;;6174423;28;20077;-80
2023/12/03 11:37:09;;;;;;;18.25;13.13;;;8.40;74.70;;;;;;6178190;28;20051;-79
2023/12/03 11:40:14;;;;;;;15.68;11.07;;;8.50;74.70;;;;;;6175076;28;20131;-79
2023/12/03 11:43:26;;;;;;;16.98;12.27;;;8.50;73.50;;;;;;6174399;28;20062;-79
2023/12/03 11:46:30;;;;;;;15.93;12.98;;;8.60;73.60;;;;;;6151565;28;20528;-82
2023/12/03 11:49:37;;;;;;;14.90;11.30;;;8.60;73.30;;;;;;6174727;28;20496;-79
2023/12/03 11:52:42;;;;;;;16.40;11.23;;;8.20;73.30;;;;;;6179492;28;20423;-77
2023/12/03 11:55:45;;;;;;;17.63;12.98;;;8.00;74.20;;;;;;6171703;28;20042;-79
2023/12/03 11:58:47;;;;;;;15.30;11.48;;;7.80;73.50;;;;;;6180562;28;20072;-77
2023/12/03 12:01:50;;;;;;;14.15;10.98;;;7.40;72.00;;;;;;6197534;28;20116;-80
2023/12/03 12:04:52;;;;;;;16.00;12.45;;;7.40;73.60;;;;;;6175042;28;20043;-79
2023/12/03 12:07:58;;;;;;;17.58;12.43;;;7.40;73.70;;;;;;6156381;28;20416;-78
2023/12/03 12:11:00;;;;;;;14.77;11.88;;;7.60;72.90;;;;;;6215452;28;20048;-79
2023/12/03 12:14:01;;;;;;;17.40;12.35;;;7.50;73.40;;;;;;6208077;28;20054;-79
2023/12/03 12:17:05;;;;;;;17.33;12.93;;;7.50;72.60;;;;;;6207695;28;20049;-78
2023/12/03 12:20:08;;;;;;;15.05;11.35;;;7.30;72.50;;;;;;6197332;28;20050;-78
2023/12/03 12:23:10;;;;;;;25.50;19.17;;;7.30;73.50;;;;;;6204018;28;20403;-78
2023/12/03 12:26:11;;;;;;;16.17;11.63;;;7.30;73.90;;;;;;6205250;28;20530;-78
2023/12/03 12:29:13;;;;;;;16.52;13.07;;;7.10;72.10;;;;;;6205239;28;20057;-77
2023/12/03 12:32:17;;;;;;;15.55;11.65;;;6.90;73.10;;;;;;6196541;28;20046;-78
2023/12/03 12:35:20;;;;;;;14.55;10.57;;;6.80;73.40;;;;;;6192978;28;20052;-79
2023/12/03 12:38:22;;;;;;;15.70;11.75;;;6.80;73.80;;;;;;6220057;28;20057;-78
2023/12/03 12:41:24;;;;;;;17.88;13.40;;;6.80;74.60;;;;;;6204395;28;20047;-79
2023/12/03 12:44:41;;;;;;;18.30;12.75;;;6.90;75.20;;;;;;6219705;28;20052;-78
2023/12/03 12:47:44;;;;;;;16.08;11.88;;;6.90;73.10;;;;;;6203153;28;20053;-80
2023/12/03 12:50:46;;;;;;;20.58;15.57;;;7.00;75.20;;;;;;6200804;28;20042;-80
2023/12/03 12:53:54;;;;;;;26.45;19.35;;;7.10;76.50;;;;;;6184011;28;20053;-79
2023/12/03 12:56:56;;;;;;;23.85;17.55;;;7.60;76.00;;;;;;6175424;28;20047;-80
2023/12/03 12:59:58;;;;;;;31.20;21.38;;;7.80;76.10;;;;;;6175525;28;20042;-79
2023/12/03 13:03:01;;;;;;;16.35;12.00;;;7.90;76.10;;;;;;6175693;28;20054;-79
2023/12/03 13:06:04;;;;;;;16.27;13.27;;;7.90;74.60;;;;;;6177137;28;20076;-79
2023/12/03 13:09:05;;;;;;;17.63;13.70;;;7.80;75.40;;;;;;6170551;28;20047;-80
2023/12/03 13:12:08;;;;;;;18.98;14.63;;;7.60;74.50;;;;;;6169916;28;20055;-79
2023/12/03 13:15:11;;;;;;;13.77;11.32;;;7.50;73.90;;;;;;6168673;28;20051;-77
2023/12/03 13:18:14;;;;;;;15.82;11.93;;;7.40;74.50;;;;;;6176025;28;20404;-79
2023/12/03 13:21:16;;;;;;;14.18;10.88;;;7.30;74.80;;;;;;6180809;28;20053;-78
2023/12/03 13:24:18;;;;;;;13.50;10.10;;;7.20;74.60;;;;;;6175531;28;20062;-79
2023/12/03 13:27:20;;;;;;;13.02;10.70;;;7.00;74.80;;;;;;6168512;28;20038;-82
2023/12/03 13:30:21;;;;;;;14.88;10.80;;;7.00;75.50;;;;;;6174216;28;20054;-78
2023/12/03 13:33:26;;;;;;;14.70;10.05;;;6.80;75.90;;;;;;6236133;22;20044;-79
2023/12/03 13:36:29;;;;;;;18.98;13.73;;;6.70;76.10;;;;;;6207676;28;20562;-79
2023/12/03 13:39:32;;;;;;;16.15;10.52;;;6.60;76.50;;;;;;6232271;28;20529;-80
2023/12/03 13:42:35;;;;;;;13.55;10.45;;;6.60;77.10;;;;;;6228299;28;20045;-80
2023/12/03 13:45:37;;;;;;;14.93;10.45;;;6.50;77.00;;;;;;6237506;28;20056;-79
2023/12/03 13:48:40;;;;;;;15.13;11.32;;;6.40;77.40;;;;;;6238294;28;20195;-78
2023/12/03 13:51:44;;;;;;;13.75;10.32;;;6.20;76.80;;;;;;6234921;28;20147;-78
2023/12/03 13:54:45;;;;;;;16.25;10.88;;;6.10;77.50;;;;;;6233175;28;20617;-78
2023/12/03 13:57:47;;;;;;;13.43;11.52;;;6.20;78.40;;;;;;6233681;28;20049;-79
2023/12/03 14:00:49;;;;;;;13.68;10.07;;;6.20;78.60;;;;;;6200997;28;20051;-79
2023/12/03 14:03:52;;;;;;;13.90;10.73;;;6.30;79.10;;;;;;6228139;28;20041;-77
2023/12/03 14:06:54;;;;;;;16.85;11.45;;;6.40;78.80;;;;;;6224230;28;20057;-79
2023/12/03 14:09:55;;;;;;;15.63;11.40;;;6.30;78.20;;;;;;6208446;28;20061;-80
2023/12/03 14:12:57;;;;;;;15.68;10.68;;;6.20;77.60;;;;;;6204099;28;20140;-77
2023/12/03 14:16:00;;;;;;;14.75;9.77;;;6.10;77.10;;;;;;6231443;28;20033;-78
2023/12/03 14:19:03;;;;;;;14.75;10.30;;;5.90;77.40;;;;;;6234812;28;20128;-78
2023/12/03 14:22:05;;;;;;;19.15;11.43;;;5.50;76.70;;;;;;6243643;28;20050;-80
2023/12/03 14:25:07;;;;;;;14.80;9.52;;;5.20;77.70;;;;;;6207478;28;20078;-77
2023/12/03 14:28:09;;;;;;;12.18;9.55;;;4.90;78.40;;;;;;6207459;28;20078;-78
2023/12/03 14:31:11;;;;;;;14.65;10.25;;;4.70;78.60;;;;;;6206035;28;20050;-77
2023/12/03 14:34:14;;;;;;;18.00;11.00;;;4.50;79.10;;;;;;6206403;28;20527;-77
2023/12/03 14:37:15;;;;;;;14.05;11.00;;;4.30;79.60;;;;;;6201704;28;20574;-78
2023/12/03 14:40:17;;;;;;;14.55;10.20;;;4.00;80.10;;;;;;6197204;28;20046;-78
2023/12/03 14:43:20;;;;;;;14.60;10.20;;;3.70;80.50;;;;;;6197203;28;20133;-79
2023/12/03 14:46:23;;;;;;;18.00;11.77;;;3.50;81.10;;;;;;6197364;28;20148;-78
2023/12/03 14:49:26;;;;;;;16.90;12.52;;;3.30;81.40;;;;;;6197918;28;20050;-78
2023/12/03 14:52:27;;;;;;;17.95;12.40;;;3.00;81.50;;;;;;6189255;28;20415;-78
2023/12/03 14:55:29;;;;;;;15.98;12.15;;;2.80;82.00;;;;;;6197990;28;20057;-78
2023/12/03 14:58:31;;;;;;;19.08;12.63;;;2.50;82.30;;;;;;6205441;28;20050;-78
2023/12/03 15:01:34;;;;;;;20.48;13.50;;;2.30;83.50;;;;;;6222505;28;20061;-77
2023/12/03 15:04:38;;;;;;;18.23;12.85;;;2.10;83.20;;;;;;6221916;28;20129;-79
2023/12/03 15:07:40;;;;;;;17.30;12.77;;;1.90;83.50;;;;;;6230803;28;20054;-77
2023/12/03 15:10:42;;;;;;;16.35;11.57;;;1.70;83.90;;;;;;6222908;28;20049;-78
2023/12/03 15:13:45;;;;;;;22.52;14.10;;;1.50;84.30;;;;;;6239314;28;20045;-77
2023/12/03 15:16:47;;;;;;;30.63;20.98;;;1.40;84.70;;;;;;6223242;28;20058;-79
2023/12/03 15:19:50;;;;;;;31.15;17.90;;;1.20;85.20;;;;;;6221240;28;20049;-78
2023/12/03 15:22:52;;;;;;;24.70;15.20;;;1.00;85.70;;;;;;6222097;28;20046;-78
2023/12/03 15:25:54;;;;;;;21.73;13.23;;;0.90;86.10;;;;;;6221473;28;20060;-78
2023/12/03 15:28:55;;;;;;;19.90;13.52;;;0.80;86.40;;;;;;6222412;28;20045;-78